Impacts TAF Board INFO
FOR SITUATIONAL AWARENESS. NOT TO BE USED FOR FLIGHT PLANNING PURPOSES.
IDs:

KMDW - Chicago/Midway Intl, IL, US

Issued at 1742 UTC 16 Dec 2017
Updated at 2027 UTC 16 Dec 2017
Potential Impact None Slight Moderate High
Time1953Z 16/21Z 16/22Z 16/23Z 17/00Z 17/01Z 17/02Z 17/03Z 17/04Z 17/05Z 17/06Z 17/07Z 17/08Z 17/09Z>>
Type OBS PRVL PRVL PRVL PRVL PRVL PRVL PRVL PRVL PRVL PRVL PRVL PRVL PRVL
VIS 10 >6 >6 >6 >6 >6 >6 >6 >6 >6 >6 >6 >6 >6
CIG -- -- -- -- -- -- -- -- -- -- -- -- -- --
Cover FEW FEW FEW SCT SCT SCT SCT SCT SCT SCT SCT SCT SCT SCT
FltCat VFR VFR VFR VFR VFR VFR VFR VFR VFR VFR VFR VFR VFR VFR
WX -- -- -- -- -- -- -- -- -- -- -- -- -- --
WDir 220 230 230 90 90 90 90 90 90 90 90 90 90 90
WSpd 6 9 9 5 5 5 5 5 5 5 5 5 5 5
WGst -- -- -- -- -- -- -- -- -- -- -- -- -- --

Raw TAF
KMDW 161742Z 1618/1724 23009KT P6SM FEW250
  FM162300 09005KT P6SM SCT200
  FM171200 11005KT P6SM SCT007 BKN200
  FM171700 20007KT P6SM SCT040 OVC080


Raw METAR
KMDW 161953Z 22006KT 10SM FEW250 08/M03 A2989 RMK AO2 SLP128 T00831028
KMDW 161853Z 23006KT 10SM FEW150 FEW250 07/M03 A2989 RMK AO2 SLP129 T00721033
KMDW 161753Z 24006KT 10SM FEW150 FEW250 07/M03 A2990 RMK AO2 SLP132 T00671033 10067 20011 50005

METAR Board
Radar Display
Forecast Discussion

FOR SITUATIONAL AWARENESS. NOT TO BE USED FOR FLIGHT PLANNING PURPOSES.